Time;durP1;ratioP1;P1;durP2;ratioP2;P2;SDS_P1;SDS_P2;PMS_P1;PMS_P2;Temp;Humidity;BMP_temperature;BMP_pressure;BME280_temperature;BME280_humidity;BME280_pressure;Samples;Min_cycle;Max_cycle;Signal;HPM_P1;HPM_P2
2022/03/21 05:31:03;;;;;;;24.58;13.25;;;;;;;;;;4925964;29;20134;-84
2022/03/21 05:36:26;;;;;;;27.73;13.55;;;;;;;;;;4930049;29;20119;-84
2022/03/21 05:38:54;;;;;;;30.13;13.68;;;;;;;;;;4931639;29;20134;-82
2022/03/21 05:41:21;;;;;;;30.95;14.02;;;;;;;;;;4931884;29;20047;-83
2022/03/21 05:43:49;;;;;;;31.80;12.18;;;;;;;;;;4929005;29;20043;-85
2022/03/21 05:46:16;;;;;;;32.63;12.93;;;;;;;;;;4929251;29;20059;-83
2022/03/21 05:48:52;;;;;;;23.73;12.23;;;;;;;;;;4928273;29;20416;-83
2022/03/21 05:51:22;;;;;;;31.55;12.65;;;;;;;;;;4928170;29;20043;-83
2022/03/21 05:53:50;;;;;;;22.52;12.38;;;;;;;;;;4934538;28;20431;-84
2022/03/21 05:56:18;;;;;;;27.63;13.05;;;;;;;;;;4929886;29;20044;-84
2022/03/21 05:58:45;;;;;;;26.70;12.60;;;;;;;;;;4929977;29;20067;-84
2022/03/21 06:01:12;;;;;;;28.95;11.90;;;;;;;;;;4931089;29;20048;-85
2022/03/21 06:03:40;;;;;;;23.95;11.70;;;;;;;;;;4931725;29;22802;-84
2022/03/21 06:06:07;;;;;;;23.05;11.63;;;;;;;;;;4932578;29;20139;-83
2022/03/21 06:08:34;;;;;;;28.17;11.13;;;;;;;;;;4930201;29;20043;-83
2022/03/21 06:11:04;;;;;;;29.73;11.57;;;;;;;;;;4928825;29;20472;-83
2022/03/21 06:13:32;;;;;;;35.83;11.70;;;;;;;;;;4936658;28;20066;-83
2022/03/21 06:16:03;;;;;;;25.73;10.67;;;;;;;;;;4931516;29;20047;-85
2022/03/21 06:18:31;;;;;;;28.50;11.00;;;;;;;;;;4931357;29;20039;-84
2022/03/21 06:20:59;;;;;;;31.13;10.48;;;;;;;;;;4930237;29;20044;-84
2022/03/21 06:23:27;;;;;;;26.58;10.68;;;;;;;;;;4930746;29;20453;-84
2022/03/21 06:25:54;;;;;;;26.35;10.52;;;;;;;;;;4930580;29;20048;-84
2022/03/21 06:28:21;;;;;;;26.52;10.30;;;;;;;;;;4929247;29;20047;-84
2022/03/21 06:30:51;;;;;;;28.00;10.43;;;;;;;;;;4931236;29;20051;-82
2022/03/21 06:33:21;;;;;;;29.73;10.40;;;;;;;;;;4931871;29;20059;-82
2022/03/21 06:35:48;;;;;;;33.10;10.10;;;;;;;;;;4944621;29;20583;-83
2022/03/21 06:38:15;;;;;;;25.40;10.77;;;;;;;;;;4929031;29;20103;-83
2022/03/21 06:40:42;;;;;;;32.65;10.18;;;;;;;;;;4929356;29;20044;-85
2022/03/21 06:43:11;;;;;;;23.80;9.60;;;;;;;;;;4931360;29;20052;-86
2022/03/21 06:45:38;;;;;;;24.98;10.23;;;;;;;;;;4930988;29;20055;-86
2022/03/21 06:48:05;;;;;;;25.00;10.18;;;;;;;;;;4946150;29;20130;-83
2022/03/21 06:50:32;;;;;;;25.13;10.25;;;;;;;;;;4929289;29;20110;-83
2022/03/21 06:52:58;;;;;;;25.67;10.07;;;;;;;;;;4929422;29;20043;-83
2022/03/21 06:55:25;;;;;;;25.02;10.07;;;;;;;;;;4929414;29;20047;-83
2022/03/21 06:57:52;;;;;;;20.95;9.95;;;;;;;;;;4929032;29;20060;-83
2022/03/21 07:00:19;;;;;;;21.73;10.15;;;;;;;;;;4932483;29;20071;-84
2022/03/21 07:02:45;;;;;;;18.15;9.98;;;;;;;;;;4928769;29;20102;-84
2022/03/21 07:05:13;;;;;;;23.73;9.73;;;;;;;;;;4929161;29;20504;-83
2022/03/21 07:07:39;;;;;;;19.52;9.63;;;;;;;;;;4931215;29;20052;-83
2022/03/21 07:10:07;;;;;;;18.38;9.10;;;;;;;;;;4930655;29;20043;-82
2022/03/21 07:12:34;;;;;;;27.75;10.40;;;;;;;;;;4931823;29;20525;-82
2022/03/21 07:15:02;;;;;;;19.27;10.02;;;;;;;;;;4930636;29;20103;-82
2022/03/21 07:17:29;;;;;;;23.98;9.32;;;;;;;;;;4929343;29;20508;-83
2022/03/21 07:19:56;;;;;;;19.08;9.15;;;;;;;;;;4930679;29;20055;-84
2022/03/21 07:22:23;;;;;;;23.13;9.68;;;;;;;;;;4928313;29;20123;-84
2022/03/21 07:24:49;;;;;;;18.63;8.85;;;;;;;;;;4929789;29;20044;-85
2022/03/21 07:27:17;;;;;;;17.48;8.98;;;;;;;;;;4931665;29;20047;-83
2022/03/21 07:29:43;;;;;;;18.45;9.45;;;;;;;;;;4931235;29;20500;-85
2022/03/21 07:32:10;;;;;;;19.13;8.50;;;;;;;;;;4933583;29;20107;-84
2022/03/21 07:34:37;;;;;;;17.55;8.65;;;;;;;;;;4934460;29;20119;-87
2022/03/21 07:37:04;;;;;;;39.58;9.57;;;;;;;;;;4929262;29;20055;-87
2022/03/21 07:39:34;;;;;;;25.13;8.88;;;;;;;;;;4927318;29;20532;-86
2022/03/21 07:42:02;;;;;;;14.75;7.93;;;;;;;;;;4932516;29;20405;-85
2022/03/21 07:47:23;;;;;;;12.55;7.38;;;;;;;;;;4929672;29;20535;-85
2022/03/21 07:49:51;;;;;;;13.95;7.95;;;;;;;;;;4929906;29;20047;-85
2022/03/21 07:52:20;;;;;;;16.48;8.10;;;;;;;;;;4929994;29;20578;-86
2022/03/21 07:54:53;;;;;;;13.88;7.72;;;;;;;;;;4916549;29;20060;-85
2022/03/21 07:57:24;;;;;;;15.10;7.22;;;;;;;;;;4926487;29;20055;-85
2022/03/21 07:59:52;;;;;;;20.10;7.63;;;;;;;;;;4932033;29;20075;-84
2022/03/21 08:02:21;;;;;;;15.85;7.22;;;;;;;;;;4929219;29;20056;-85
2022/03/21 08:04:49;;;;;;;13.48;7.30;;;;;;;;;;4929970;29;20079;-85
2022/03/21 08:07:21;;;;;;;12.02;7.00;;;;;;;;;;4930592;29;20071;-85
2022/03/21 08:09:47;;;;;;;13.77;7.22;;;;;;;;;;4930731;29;20052;-85
2022/03/21 08:12:14;;;;;;;16.20;7.38;;;;;;;;;;4928078;28;20044;-84
2022/03/21 08:14:41;;;;;;;10.13;6.47;;;;;;;;;;4931386;29;20047;-83
2022/03/21 08:17:09;;;;;;;9.70;6.00;;;;;;;;;;4929666;29;20497;-83
2022/03/21 08:19:36;;;;;;;12.00;6.28;;;;;;;;;;4929479;29;20047;-85
2022/03/21 08:22:04;;;;;;;9.85;6.53;;;;;;;;;;4926918;29;20051;-84
2022/03/21 08:24:35;;;;;;;11.63;5.93;;;;;;;;;;4926920;29;20102;-83
2022/03/21 08:27:05;;;;;;;14.05;6.45;;;;;;;;;;4928592;28;20684;-83
2022/03/21 08:29:32;;;;;;;10.15;5.50;;;;;;;;;;4927135;29;20130;-83
2022/03/21 08:31:59;;;;;;;11.73;5.93;;;;;;;;;;4929058;29;20044;-84
2022/03/21 08:34:27;;;;;;;9.53;5.00;;;;;;;;;;4928784;29;20087;-84
2022/03/21 08:36:53;;;;;;;11.50;5.03;;;;;;;;;;4930746;29;20080;-85
2022/03/21 08:39:20;;;;;;;9.95;5.10;;;;;;;;;;4932525;29;20135;-85
2022/03/21 08:41:47;;;;;;;7.80;5.05;;;;;;;;;;4931044;29;20151;-84
2022/03/21 08:44:14;;;;;;;13.35;5.25;;;;;;;;;;4931562;29;20069;-84
2022/03/21 08:46:41;;;;;;;10.95;5.50;;;;;;;;;;4930605;29;20142;-85
2022/03/21 08:49:27;;;;;;;12.23;4.93;;;;;;;;;;4932110;29;20048;-89
2022/03/21 08:51:57;;;;;;;11.15;4.72;;;;;;;;;;4916421;29;20050;-87
2022/03/21 08:54:24;;;;;;;6.45;4.60;;;;;;;;;;4932913;29;20063;-86
2022/03/21 08:56:51;;;;;;;8.00;5.13;;;;;;;;;;4932847;29;20057;-87
2022/03/21 08:59:18;;;;;;;9.27;4.68;;;;;;;;;;4931490;29;20052;-87
2022/03/21 09:01:45;;;;;;;7.57;4.93;;;;;;;;;;4930526;29;20047;-87
2022/03/21 09:04:13;;;;;;;7.53;3.90;;;;;;;;;;4930257;29;20424;-87
2022/03/21 09:06:40;;;;;;;8.13;4.40;;;;;;;;;;4931769;29;20493;-86
2022/03/21 09:09:07;;;;;;;8.13;4.10;;;;;;;;;;4932259;29;20476;-86
2022/03/21 09:11:34;;;;;;;6.78;4.00;;;;;;;;;;4930585;29;20059;-90
2022/03/21 09:14:01;;;;;;;7.65;3.95;;;;;;;;;;4932396;29;20043;-88
2022/03/21 09:16:29;;;;;;;6.13;3.92;;;;;;;;;;4931488;29;20052;-86
2022/03/21 09:18:56;;;;;;;8.38;4.22;;;;;;;;;;4930364;29;20056;-87
2022/03/21 09:21:22;;;;;;;8.40;4.18;;;;;;;;;;4931122;29;20055;-87
2022/03/21 09:23:50;;;;;;;7.35;3.47;;;;;;;;;;4931161;29;20091;-88
2022/03/21 09:26:17;;;;;;;5.93;3.55;;;;;;;;;;4930104;29;20134;-87
2022/03/21 09:28:43;;;;;;;8.15;4.20;;;;;;;;;;4930045;29;20512;-88
2022/03/21 09:31:14;;;;;;;12.70;3.80;;;;;;;;;;4929445;29;20066;-85
2022/03/21 09:34:02;;;;;;;7.05;3.47;;;;;;;;;;4926750;29;20055;-87
2022/03/21 09:36:28;;;;;;;6.68;3.65;;;;;;;;;;4931794;29;20047;-86
2022/03/21 09:38:55;;;;;;;7.30;3.90;;;;;;;;;;4929969;29;20059;-87
2022/03/21 09:41:25;;;;;;;7.22;3.55;;;;;;;;;;4929098;29;20055;-89
2022/03/21 09:43:58;;;;;;;6.38;3.22;;;;;;;;;;4930059;29;20047;-89
2022/03/21 09:46:24;;;;;;;8.55;3.22;;;;;;;;;;4929968;28;20055;-88
2022/03/21 09:48:54;;;;;;;7.25;3.33;;;;;;;;;;4931937;29;20556;-88
2022/03/21 09:51:25;;;;;;;15.48;3.58;;;;;;;;;;4930772;29;20099;-87
2022/03/21 09:53:54;;;;;;;5.68;2.70;;;;;;;;;;4931796;29;20561;-87
2022/03/21 09:56:21;;;;;;;7.57;3.33;;;;;;;;;;4930535;29;20567;-87
2022/03/21 09:58:48;;;;;;;6.32;3.50;;;;;;;;;;4929598;29;20058;-89
2022/03/21 10:01:16;;;;;;;6.15;3.05;;;;;;;;;;4931103;29;20480;-87
2022/03/21 10:03:44;;;;;;;;;;;;;;;;;;4931325;29;20051;-89
2022/03/21 10:06:32;;;;;;;6.35;2.50;;;;;;;;;;4932556;29;19977;-87
2022/03/21 10:09:10;;;;;;;6.57;2.55;;;;;;;;;;4930785;29;20140;-87
2022/03/21 10:11:39;;;;;;;6.47;2.95;;;;;;;;;;4928196;29;20047;-86
2022/03/21 10:14:32;;;;;;;6.32;2.70;;;;;;;;;;4929560;29;20043;-90
2022/03/21 10:17:08;;;;;;;4.95;2.25;;;;;;;;;;4929767;29;20071;-88
2022/03/21 10:19:47;;;;;;;4.38;2.38;;;;;;;;;;4928011;29;20458;-88
2022/03/21 10:22:16;;;;;;;7.20;2.70;;;;;;;;;;4923147;29;20051;-87
2022/03/21 10:24:49;;;;;;;6.88;2.47;;;;;;;;;;4927368;29;20058;-86
2022/03/21 10:27:47;;;;;;;5.53;2.50;;;;;;;;;;4927152;29;20117;-87
2022/03/21 10:30:23;;;;;;;6.00;2.90;;;;;;;;;;4911657;29;20107;-93
2022/03/21 10:32:58;;;;;;;5.90;2.42;;;;;;;;;;4928545;29;20522;-89
2022/03/21 10:35:28;;;;;;;5.15;2.58;;;;;;;;;;4927024;29;20043;-93
2022/03/21 10:37:56;;;;;;;4.40;2.22;;;;;;;;;;4926793;29;20044;-88
2022/03/21 10:40:34;;;;;;;7.20;2.80;;;;;;;;;;4925354;29;20091;-90
2022/03/21 10:43:03;;;;;;;6.97;2.65;;;;;;;;;;4919559;29;20039;-89
2022/03/21 10:45:42;;;;;;;6.53;2.42;;;;;;;;;;4926499;29;20048;-88
2022/03/21 10:48:17;;;;;;;5.88;2.42;;;;;;;;;;4927380;29;20050;-87
2022/03/21 10:50:46;;;;;;;6.32;2.45;;;;;;;;;;4940942;29;20424;-88
2022/03/21 10:53:18;;;;;;;5.60;2.20;;;;;;;;;;4927109;29;20461;-89
2022/03/21 10:55:47;;;;;;;7.85;2.60;;;;;;;;;;4927733;29;20107;-89
2022/03/21 10:58:17;;;;;;;5.40;2.58;;;;;;;;;;4925565;29;20103;-90
2022/03/21 11:00:44;;;;;;;9.73;2.75;;;;;;;;;;4920541;29;20572;-88
2022/03/21 11:03:16;;;;;;;6.47;2.55;;;;;;;;;;4927435;29;20126;-90
2022/03/21 11:05:46;;;;;;;6.82;2.90;;;;;;;;;;4929566;29;20059;-89
2022/03/21 11:08:17;;;;;;;5.22;2.80;;;;;;;;;;4929661;29;20048;-89
2022/03/21 11:10:45;;;;;;;8.18;2.95;;;;;;;;;;4929578;29;20527;-90
2022/03/21 11:13:13;;;;;;;7.85;2.97;;;;;;;;;;4930382;29;20456;-91
2022/03/21 11:15:41;;;;;;;6.55;2.67;;;;;;;;;;4929367;29;20060;-90
2022/03/21 11:18:09;;;;;;;6.75;2.83;;;;;;;;;;4931952;29;20059;-89
2022/03/21 11:20:37;;;;;;;7.28;3.15;;;;;;;;;;4929669;29;20355;-88
2022/03/21 11:23:05;;;;;;;11.38;2.42;;;;;;;;;;4929940;29;20454;-89
2022/03/21 11:25:34;;;;;;;6.15;2.35;;;;;;;;;;4930432;29;20095;-93
2022/03/21 11:28:10;;;;;;;9.63;2.97;;;;;;;;;;4929004;29;20048;-93
2022/03/21 11:31:17;;;;;;;7.30;2.30;;;;;;;;;;4930922;29;20048;-91
2022/03/21 11:34:18;;;;;;;5.82;2.45;;;;;;;;;;4930376;29;20047;-91
2022/03/21 11:36:53;;;;;;;6.70;2.58;;;;;;;;;;4946381;29;20190;-90
2022/03/21 11:39:20;;;;;;;8.60;2.75;;;;;;;;;;4930626;29;20055;-91
2022/03/21 11:42:03;;;;;;;7.15;2.38;;;;;;;;;;4931503;29;20055;-89
2022/03/21 11:44:30;;;;;;;10.88;2.60;;;;;;;;;;4929580;29;20583;-89
2022/03/21 11:47:20;;;;;;;9.52;2.70;;;;;;;;;;4945674;29;20926;-90
2022/03/21 11:49:47;;;;;;;12.25;2.95;;;;;;;;;;4927255;29;20110;-88
2022/03/21 11:52:14;;;;;;;7.38;2.47;;;;;;;;;;4929570;29;20052;-89
2022/03/21 11:54:43;;;;;;;10.73;2.47;;;;;;;;;;4931324;29;20082;-89
2022/03/21 11:57:35;;;;;;;8.82;2.40;;;;;;;;;;4945736;29;20051;-87
2022/03/21 12:00:13;;;;;;;7.25;2.80;;;;;;;;;;4930590;29;20071;-87
2022/03/21 12:02:39;;;;;;;8.60;3.88;;;;;;;;;;4925482;29;20044;-88
2022/03/21 12:05:06;;;;;;;6.82;2.67;;;;;;;;;;4926283;29;20143;-86
2022/03/21 12:07:34;;;;;;;3.90;2.50;;;;;;;;;;4929478;29;20089;-88
2022/03/21 12:10:00;;;;;;;4.72;2.90;;;;;;;;;;4926554;29;20060;-88
2022/03/21 12:12:39;;;;;;;11.13;2.45;;;;;;;;;;4927993;29;20035;-87
2022/03/21 12:15:17;;;;;;;7.20;2.80;;;;;;;;;;4929473;29;20051;-87
2022/03/21 12:17:49;;;;;;;7.57;2.55;;;;;;;;;;4928367;29;20056;-87
2022/03/21 12:20:19;;;;;;;7.88;2.47;;;;;;;;;;4928711;29;20379;-88
2022/03/21 12:23:17;;;;;;;8.25;2.58;;;;;;;;;;4922914;29;20152;-87
2022/03/21 12:25:48;;;;;;;6.38;2.63;;;;;;;;;;4924494;29;20500;-87
2022/03/21 12:31:31;;;;;;;6.13;2.38;;;;;;;;;;4928629;29;20040;-88
2022/03/21 12:34:36;;;;;;;6.78;2.75;;;;;;;;;;4922507;29;20054;-90
2022/03/21 12:37:23;;;;;;;7.88;2.70;;;;;;;;;;4923230;29;20103;-88
2022/03/21 12:39:50;;;;;;;8.30;2.60;;;;;;;;;;4928639;29;20489;-88
2022/03/21 12:42:19;;;;;;;7.40;2.53;;;;;;;;;;4925877;29;20055;-89
2022/03/21 12:44:46;;;;;;;8.45;2.78;;;;;;;;;;4926360;29;20075;-88
2022/03/21 12:47:17;;;;;;;5.60;2.47;;;;;;;;;;4928958;29;20500;-89
2022/03/21 12:49:51;;;;;;;8.43;3.08;;;;;;;;;;4929355;29;20101;-86
2022/03/21 12:52:29;;;;;;;8.77;3.20;;;;;;;;;;4928454;29;20051;-89
2022/03/21 12:55:00;;;;;;;6.57;2.40;;;;;;;;;;4921678;29;20066;-87
2022/03/21 12:57:27;;;;;;;9.45;2.70;;;;;;;;;;4928972;29;20040;-87
2022/03/21 13:00:14;;;;;;;8.27;2.80;;;;;;;;;;4929766;29;20520;-86
2022/03/21 13:02:40;;;;;;;5.90;2.50;;;;;;;;;;4927108;29;20122;-87
2022/03/21 13:10:43;;;;;;;9.32;2.60;;;;;;;;;;4926960;29;20492;-89
2022/03/21 13:13:09;;;;;;;5.65;2.47;;;;;;;;;;4924352;28;20056;-87
2022/03/21 13:15:36;;;;;;;8.80;2.67;;;;;;;;;;4931245;29;20103;-88
2022/03/21 13:18:04;;;;;;;10.13;2.67;;;;;;;;;;4930898;29;20048;-88
2022/03/21 13:20:34;;;;;;;8.52;2.70;;;;;;;;;;4930575;29;20102;-88
2022/03/21 13:23:03;;;;;;;10.57;2.75;;;;;;;;;;4930507;29;20052;-88
2022/03/21 13:25:37;;;;;;;8.38;2.42;;;;;;;;;;4930915;29;20048;-89
2022/03/21 13:28:07;;;;;;;9.30;2.42;;;;;;;;;;4928709;29;20516;-88
2022/03/21 13:30:34;;;;;;;6.43;2.67;;;;;;;;;;4927983;29;20074;-86
2022/03/21 13:33:01;;;;;;;7.05;2.58;;;;;;;;;;4946481;28;20583;-86
2022/03/21 13:35:28;;;;;;;5.72;2.47;;;;;;;;;;4928668;28;20123;-87
2022/03/21 13:38:05;;;;;;;7.25;2.90;;;;;;;;;;4928116;29;20062;-87
2022/03/21 13:40:44;;;;;;;8.38;2.97;;;;;;;;;;4920086;29;20047;-86
2022/03/21 13:43:14;;;;;;;;;;;;;;;;;;4927499;29;20044;-85
2022/03/21 13:45:41;;;;;;;9.38;2.63;;;;;;;;;;4926856;29;19988;-86
2022/03/21 13:48:08;;;;;;;10.10;2.60;;;;;;;;;;4946290;29;20107;-87
2022/03/21 13:50:39;;;;;;;7.15;2.30;;;;;;;;;;4931270;29;20496;-88
2022/03/21 13:53:28;;;;;;;7.00;3.00;;;;;;;;;;4929577;29;20138;-90
2022/03/21 13:55:56;;;;;;;8.75;2.80;;;;;;;;;;4928440;29;20039;-89
2022/03/21 13:58:31;;;;;;;11.02;3.17;;;;;;;;;;4931649;29;21687;-89
2022/03/21 14:00:58;;;;;;;8.63;2.72;;;;;;;;;;4931464;29;20050;-90
2022/03/21 14:03:41;;;;;;;8.57;2.70;;;;;;;;;;4931012;29;20051;-90
2022/03/21 14:06:08;;;;;;;8.13;2.63;;;;;;;;;;4930586;29;20075;-90
2022/03/21 14:08:35;;;;;;;7.70;2.53;;;;;;;;;;4931172;29;20115;-91
2022/03/21 14:11:05;;;;;;;8.25;2.50;;;;;;;;;;4931524;29;20556;-90
2022/03/21 14:13:38;;;;;;;5.78;2.72;;;;;;;;;;4931191;29;20267;-88
2022/03/21 14:16:06;;;;;;;6.55;2.53;;;;;;;;;;4930004;29;20068;-90
2022/03/21 14:18:34;;;;;;;7.43;2.65;;;;;;;;;;4931575;29;20051;-89
2022/03/21 14:21:02;;;;;;;9.80;2.63;;;;;;;;;;4946003;29;20508;-90
2022/03/21 14:23:30;;;;;;;7.97;2.63;;;;;;;;;;4930288;29;20046;-88
2022/03/21 14:28:43;;;;;;;5.88;2.40;;;;;;;;;;4929471;29;20056;-88
2022/03/21 14:31:11;;;;;;;7.20;2.60;;;;;;;;;;4929512;29;20044;-88
2022/03/21 14:33:38;;;;;;;9.57;2.88;;;;;;;;;;4931348;29;20060;-87
2022/03/21 14:36:07;;;;;;;7.05;2.53;;;;;;;;;;4945784;29;20056;-89
2022/03/21 14:38:35;;;;;;;7.57;2.55;;;;;;;;;;4927745;29;20111;-88
2022/03/21 14:41:12;;;;;;;7.65;2.70;;;;;;;;;;4938991;28;20122;-89
2022/03/21 14:43:41;;;;;;;5.43;2.70;;;;;;;;;;4930970;28;20055;-88
2022/03/21 14:46:07;;;;;;;12.15;3.20;;;;;;;;;;4928696;29;20051;-86
2022/03/21 14:48:34;;;;;;;6.95;2.70;;;;;;;;;;4930877;29;20054;-86
2022/03/21 14:51:02;;;;;;;12.13;3.40;;;;;;;;;;4929380;29;20579;-87
2022/03/21 14:53:29;;;;;;;7.15;2.30;;;;;;;;;;4929017;29;20123;-89
2022/03/21 14:56:00;;;;;;;7.18;2.45;;;;;;;;;;4927321;29;20051;-86
2022/03/21 14:58:28;;;;;;;9.18;2.65;;;;;;;;;;4925858;29;20058;-87
2022/03/21 15:00:55;;;;;;;6.97;2.70;;;;;;;;;;4925222;29;20052;-86
2022/03/21 15:03:25;;;;;;;8.85;2.78;;;;;;;;;;4927226;29;20052;-87
2022/03/21 15:05:53;;;;;;;9.52;3.08;;;;;;;;;;4926806;29;20067;-88
2022/03/21 15:08:20;;;;;;;6.30;2.50;;;;;;;;;;4925217;29;20052;-90
2022/03/21 15:10:48;;;;;;;5.85;2.50;;;;;;;;;;4926384;29;20138;-89
2022/03/21 15:13:16;;;;;;;8.23;2.50;;;;;;;;;;4937899;28;20424;-89
2022/03/21 15:15:44;;;;;;;6.78;2.25;;;;;;;;;;4933288;28;20418;-88
2022/03/21 15:18:12;;;;;;;9.68;2.50;;;;;;;;;;4925528;29;20043;-89
2022/03/21 15:20:39;;;;;;;7.27;2.80;;;;;;;;;;4923943;29;20044;-87
2022/03/21 15:23:06;;;;;;;10.77;2.65;;;;;;;;;;4924841;29;20467;-88
2022/03/21 15:25:35;;;;;;;8.40;2.50;;;;;;;;;;4921342;29;20120;-89
2022/03/21 15:28:06;;;;;;;8.95;2.60;;;;;;;;;;4916614;29;20323;-86
2022/03/21 15:30:33;;;;;;;10.10;2.77;;;;;;;;;;4916147;29;20052;-89
2022/03/21 15:33:00;;;;;;;8.55;3.00;;;;;;;;;;4923489;29;20465;-90
2022/03/21 15:35:27;;;;;;;8.23;3.05;;;;;;;;;;4934040;28;20059;-90
2022/03/21 15:43:25;;;;;;;10.18;3.08;;;;;;;;;;4923255;29;20492;-90
2022/03/21 15:45:53;;;;;;;9.05;2.83;;;;;;;;;;4923164;29;20052;-87
2022/03/21 15:48:24;;;;;;;3.88;2.45;;;;;;;;;;4927422;29;20082;-89
2022/03/21 15:50:52;;;;;;;7.30;2.28;;;;;;;;;;4927650;29;20071;-88
2022/03/21 15:53:20;;;;;;;6.82;2.35;;;;;;;;;;4928486;29;20056;-88
2022/03/21 15:55:48;;;;;;;6.68;2.55;;;;;;;;;;4927462;29;20055;-87
2022/03/21 15:58:18;;;;;;;11.98;2.80;;;;;;;;;;4930315;29;20051;-87
2022/03/21 16:00:45;;;;;;;11.15;2.63;;;;;;;;;;4929631;29;20052;-88
2022/03/21 16:03:22;;;;;;;7.28;3.00;;;;;;;;;;4928955;29;20047;-88
2022/03/21 16:05:50;;;;;;;8.80;2.72;;;;;;;;;;4929699;29;20048;-87
2022/03/21 16:08:17;;;;;;;4.75;2.60;;;;;;;;;;4929579;29;20051;-88
2022/03/21 16:10:44;;;;;;;6.28;2.45;;;;;;;;;;4927721;29;20127;-87
2022/03/21 16:13:11;;;;;;;7.18;2.55;;;;;;;;;;4928945;29;20043;-87
2022/03/21 16:15:38;;;;;;;6.63;2.58;;;;;;;;;;4928024;29;20500;-92
2022/03/21 16:18:09;;;;;;;9.25;2.78;;;;;;;;;;4928873;29;20076;-87
2022/03/21 16:20:40;;;;;;;8.10;2.75;;;;;;;;;;4929431;29;20147;-88
2022/03/21 16:23:08;;;;;;;8.50;2.60;;;;;;;;;;4926449;29;20130;-86
2022/03/21 16:25:35;;;;;;;8.23;2.53;;;;;;;;;;4929316;29;20131;-87
2022/03/21 16:28:02;;;;;;;9.32;3.33;;;;;;;;;;4924685;29;20104;-89
2022/03/21 16:30:29;;;;;;;9.65;2.63;;;;;;;;;;4928841;29;20405;-88
2022/03/21 16:32:55;;;;;;;6.25;2.80;;;;;;;;;;4929495;29;20107;-86
2022/03/21 16:35:22;;;;;;;6.47;2.80;;;;;;;;;;4928824;29;20050;-92
2022/03/21 16:37:49;;;;;;;9.45;2.65;;;;;;;;;;4928429;29;20043;-92
2022/03/21 16:40:19;;;;;;;8.23;2.80;;;;;;;;;;4930808;29;20047;-93
2022/03/21 16:42:47;;;;;;;9.48;3.08;;;;;;;;;;4932307;29;20386;-88
2022/03/21 16:45:14;;;;;;;14.45;3.13;;;;;;;;;;4929964;29;20060;-88
2022/03/21 16:47:41;;;;;;;9.48;3.08;;;;;;;;;;4927688;29;20401;-86
2022/03/21 16:50:11;;;;;;;7.93;2.90;;;;;;;;;;4928817;29;20051;-90
2022/03/21 16:52:38;;;;;;;8.07;2.92;;;;;;;;;;4928314;29;20048;-87
2022/03/21 16:55:07;;;;;;;8.07;2.90;;;;;;;;;;4942516;29;20067;-86
2022/03/21 16:57:33;;;;;;;7.60;2.60;;;;;;;;;;4928462;29;20055;-87
2022/03/21 17:00:00;;;;;;;5.53;2.47;;;;;;;;;;4927196;29;20056;-85
2022/03/21 17:02:27;;;;;;;9.05;3.08;;;;;;;;;;4926752;29;20043;-87
2022/03/21 17:04:54;;;;;;;10.10;2.50;;;;;;;;;;4925800;29;20079;-86
2022/03/21 17:07:23;;;;;;;11.07;2.75;;;;;;;;;;4925612;29;20095;-86
2022/03/21 17:09:50;;;;;;;;;;;;;;;;;;4924875;29;20054;-87
2022/03/21 17:12:17;;;;;;;10.40;2.95;;;;;;;;;;4929781;29;19946;-88
2022/03/21 17:14:47;;;;;;;9.55;2.83;;;;;;;;;;4927561;29;20056;-88
2022/03/21 17:17:15;;;;;;;7.45;2.65;;;;;;;;;;4929986;29;20140;-85
2022/03/21 17:25:16;;;;;;;11.15;3.15;;;;;;;;;;4924593;28;20048;-86
2022/03/21 17:27:43;;;;;;;10.38;3.03;;;;;;;;;;4929552;28;20459;-87
2022/03/21 17:30:11;;;;;;;10.70;2.50;;;;;;;;;;4928365;29;20047;-88
2022/03/21 17:32:38;;;;;;;7.15;2.55;;;;;;;;;;4927483;29;20079;-87
2022/03/21 17:35:05;;;;;;;9.18;2.53;;;;;;;;;;4927275;29;20623;-88
2022/03/21 17:37:32;;;;;;;12.15;2.95;;;;;;;;;;4926295;29;20056;-82
2022/03/21 17:39:59;;;;;;;8.80;3.15;;;;;;;;;;4928848;29;20509;-86
2022/03/21 17:42:28;;;;;;;8.57;2.58;;;;;;;;;;4921651;29;20044;-89
2022/03/21 17:44:56;;;;;;;8.70;2.75;;;;;;;;;;4923096;29;20799;-86
2022/03/21 17:47:25;;;;;;;9.70;2.85;;;;;;;;;;4926831;29;20158;-87
2022/03/21 17:49:51;;;;;;;12.15;4.28;;;;;;;;;;4920322;29;20071;-87
2022/03/21 17:52:19;;;;;;;10.98;3.10;;;;;;;;;;4922391;29;20134;-85
2022/03/21 17:54:46;;;;;;;8.80;2.55;;;;;;;;;;4920493;29;20513;-87
2022/03/21 17:57:14;;;;;;;9.93;2.90;;;;;;;;;;4916605;29;20048;-85
2022/03/21 17:59:41;;;;;;;9.93;3.17;;;;;;;;;;4921133;29;20071;-87
2022/03/21 18:02:09;;;;;;;12.93;3.55;;;;;;;;;;4920813;28;20047;-88
2022/03/21 18:04:36;;;;;;;12.35;3.08;;;;;;;;;;4919556;29;20043;-85
2022/03/21 18:07:03;;;;;;;8.98;3.00;;;;;;;;;;4918780;29;20592;-84
2022/03/21 18:09:30;;;;;;;12.10;3.22;;;;;;;;;;4915183;29;20048;-84
2022/03/21 18:11:56;;;;;;;10.52;3.80;;;;;;;;;;4922799;29;20441;-84
2022/03/21 18:14:25;;;;;;;14.60;4.13;;;;;;;;;;4925950;29;20048;-86
2022/03/21 18:16:52;;;;;;;;;;;;;;;;;;4923871;29;20048;-84
2022/03/21 18:21:51;;;;;;;16.45;8.02;;;;;;;;;;4924535;29;20047;-87
2022/03/21 18:24:19;;;;;;;14.00;5.05;;;;;;;;;;4920346;29;20052;-87
2022/03/21 18:26:45;;;;;;;10.77;5.63;;;;;;;;;;4923049;29;20048;-86
2022/03/21 18:29:12;;;;;;;11.63;6.72;;;;;;;;;;4919538;29;20130;-87
2022/03/21 18:31:38;;;;;;;12.05;4.60;;;;;;;;;;4926219;29;20052;-87
2022/03/21 18:34:05;;;;;;;10.30;4.13;;;;;;;;;;4927616;29;20051;-88
2022/03/21 18:36:37;;;;;;;9.15;4.35;;;;;;;;;;4929042;29;20878;-88
2022/03/21 18:39:05;;;;;;;10.68;3.55;;;;;;;;;;4929613;29;20048;-88
2022/03/21 18:41:32;;;;;;;14.37;5.33;;;;;;;;;;4942047;29;20056;-89
2022/03/21 18:44:00;;;;;;;13.45;6.25;;;;;;;;;;4929068;29;20051;-90
2022/03/21 18:46:27;;;;;;;23.70;14.57;;;;;;;;;;4929864;29;20106;-89
2022/03/21 18:48:54;;;;;;;28.05;21.50;;;;;;;;;;4918937;29;20131;-90
2022/03/21 18:51:23;;;;;;;12.85;7.40;;;;;;;;;;4930967;29;20079;-88
2022/03/21 18:53:50;;;;;;;14.55;7.85;;;;;;;;;;4929327;29;20190;-87
2022/03/21 18:56:17;;;;;;;15.55;5.72;;;;;;;;;;4932815;29;20051;-88
2022/03/21 18:58:44;;;;;;;15.82;6.82;;;;;;;;;;4928040;29;20068;-87
2022/03/21 19:01:13;;;;;;;13.20;4.28;;;;;;;;;;4929148;29;20056;-87
2022/03/21 19:03:41;;;;;;;17.67;4.82;;;;;;;;;;4944741;29;20047;-88
2022/03/21 19:06:12;;;;;;;14.30;3.60;;;;;;;;;;4943817;29;20428;-87
2022/03/21 19:08:39;;;;;;;13.43;3.22;;;;;;;;;;4925614;29;20055;-86
2022/03/21 19:11:05;;;;;;;11.60;2.80;;;;;;;;;;4929194;29;20516;-87
2022/03/21 19:13:32;;;;;;;10.95;3.50;;;;;;;;;;4929664;29;20058;-87
2022/03/21 19:15:59;;;;;;;16.00;3.72;;;;;;;;;;4929044;29;20098;-87
2022/03/21 19:18:26;;;;;;;12.52;4.00;;;;;;;;;;4929836;29;20051;-87
2022/03/21 19:20:53;;;;;;;13.48;3.97;;;;;;;;;;4930577;29;20044;-86
2022/03/21 19:23:20;;;;;;;12.15;3.45;;;;;;;;;;4927188;29;20574;-86
2022/03/21 19:25:47;;;;;;;10.15;4.28;;;;;;;;;;4929410;29;20056;-85
2022/03/21 19:28:14;;;;;;;10.77;3.58;;;;;;;;;;4929980;29;20465;-84
2022/03/21 19:30:43;;;;;;;8.43;3.03;;;;;;;;;;4930541;29;20055;-84
2022/03/21 19:33:11;;;;;;;16.25;3.83;;;;;;;;;;4929188;29;20060;-84
2022/03/21 19:35:38;;;;;;;8.88;3.45;;;;;;;;;;4930027;29;20424;-87
2022/03/21 19:38:04;;;;;;;10.38;3.75;;;;;;;;;;4932076;29;20115;-85
2022/03/21 19:40:36;;;;;;;13.80;3.65;;;;;;;;;;4932080;29;20139;-87
2022/03/21 19:43:05;;;;;;;10.55;3.78;;;;;;;;;;4920568;29;20052;-89
2022/03/21 19:45:35;;;;;;;11.73;3.85;;;;;;;;;;4932110;29;20047;-88
2022/03/21 19:48:05;;;;;;;11.82;3.97;;;;;;;;;;4931132;29;20055;-89
2022/03/21 19:50:34;;;;;;;11.43;4.03;;;;;;;;;;4932777;29;20051;-88
2022/03/21 19:53:02;;;;;;;;;;;;;;;;;;4931568;29;20051;-88
2022/03/21 19:55:31;;;;;;;11.40;5.10;;;;;;;;;;4930730;29;19926;-85
2022/03/21 19:57:58;;;;;;;17.50;9.82;;;;;;;;;;4929619;29;20138;-83
2022/03/21 20:00:27;;;;;;;17.17;5.32;;;;;;;;;;4929372;29;20044;-84
2022/03/21 20:02:54;;;;;;;17.92;6.75;;;;;;;;;;4930878;29;20079;-80
2022/03/21 20:05:43;;;;;;;12.98;6.70;;;;;;;;;;4942487;29;20055;-83
2022/03/21 20:08:10;;;;;;;11.02;4.28;;;;;;;;;;4923778;29;20831;-83
2022/03/21 20:10:41;;;;;;;13.10;4.43;;;;;;;;;;4926830;29;20061;-86
2022/03/21 20:13:08;;;;;;;12.85;4.60;;;;;;;;;;4919452;29;20126;-84
2022/03/21 20:15:38;;;;;;;10.93;4.45;;;;;;;;;;4925484;29;20047;-83
2022/03/21 20:18:06;;;;;;;8.65;4.07;;;;;;;;;;4929629;29;20052;-82
2022/03/21 20:20:35;;;;;;;15.93;8.65;;;;;;;;;;4928578;29;20047;-85
2022/03/21 20:23:03;;;;;;;15.35;7.22;;;;;;;;;;4926185;29;20047;-85
2022/03/21 20:25:32;;;;;;;9.63;5.50;;;;;;;;;;4943033;28;20039;-84
2022/03/21 20:27:59;;;;;;;12.38;6.47;;;;;;;;;;4928796;29;20055;-84
2022/03/21 20:30:26;;;;;;;12.05;5.05;;;;;;;;;;4926842;29;20044;-84
2022/03/21 20:32:53;;;;;;;15.60;5.45;;;;;;;;;;4928728;29;20122;-85
2022/03/21 20:35:22;;;;;;;15.32;5.20;;;;;;;;;;4928959;29;20047;-85
2022/03/21 20:37:50;;;;;;;10.68;5.85;;;;;;;;;;4928792;29;20051;-86
2022/03/21 20:40:18;;;;;;;20.63;10.50;;;;;;;;;;4925749;29;20442;-84
2022/03/21 20:42:46;;;;;;;13.27;5.97;;;;;;;;;;4928884;29;20131;-86
2022/03/21 20:45:14;;;;;;;25.50;14.50;;;;;;;;;;4924770;29;20040;-85
2022/03/21 20:47:41;;;;;;;38.88;22.10;;;;;;;;;;4928938;29;20058;-85
2022/03/21 20:50:09;;;;;;;28.00;15.52;;;;;;;;;;4928178;29;20096;-85